Richland, South Carolina
Current Conditions -  °F | °C
As of 10:54 AM on Friday 24 Oct 2014 (Local Time) from KCEU Reporting Station
Clear Clear  
Wind Chill: 59°   Ceiling: Unl
Heat Index: 59°   Visibility: 10mi
Dew Point: 47°   Wind: 0mph
Humidity: 64%   Direction: NA
Pressure: 30.11"   Gusts: NA
Location:  34.68°N, 83.03°W
Report Text: KCEU 241454Z AUTO 00000KT 10SM CLR 15/08 A3011 RMK AO2 SLP191 T01500083 53010
Loading
Personal Weather Stations






























Interactive Weather Map
Tropical Storm Tracking
New forecast layout! Learn more

10-Day Weather Forecast

Advertisements
Track Severe Weather on mobile